TimeEDT,TemperatureF,Dew PointF,Humidity,Sea Level PressureIn,VisibilityMPH,Wind Direction,Wind SpeedMPH,Gust SpeedMPH,PrecipitationIn,Events,Conditions,WindDirDegrees,DateUTC
12:14 AM,49.1,47.8,95,30.13,10.0,Calm,Calm,-,N/A,,Clear,0,2013-08-05 04:14:00
12:34 AM,49.8,48.7,96,30.13,10.0,Calm,Calm,-,N/A,,Clear,0,2013-08-05 04:34:00
12:54 AM,49.5,48.4,96,30.13,10.0,Calm,Calm,-,N/A,,Clear,0,2013-08-05 04:54:00
1:13 AM,49.5,48.6,97,30.13,10.0,Calm,Calm,-,N/A,,Clear,0,2013-08-05 05:13:00
1:34 AM,48.7,47.8,97,30.12,10.0,Calm,Calm,-,N/A,,Clear,0,2013-08-05 05:34:00
1:54 AM,48.7,48.2,98,30.13,10.0,Calm,Calm,-,N/A,,Clear,0,2013-08-05 05:54:00
2:13 AM,47.8,47.1,97,30.13,10.0,Calm,Calm,-,N/A,,Clear,0,2013-08-05 06:13:00
2:34 AM,48.2,47.3,97,30.13,10.0,Calm,Calm,-,N/A,,Clear,0,2013-08-05 06:34:00
2:54 AM,47.5,46.8,97,30.12,10.0,Calm,Calm,-,N/A,,Clear,0,2013-08-05 06:54:00
3:13 AM,46.9,46.4,98,30.12,-9999.0,Calm,Calm,-,N/A,,Unknown,0,2013-08-05 07:13:00
3:34 AM,47.3,46.6,97,30.12,10.0,Calm,Calm,-,N/A,,Clear,0,2013-08-05 07:34:00
3:54 AM,46.4,45.5,97,30.12,10.0,Calm,Calm,-,N/A,,Clear,0,2013-08-05 07:54:00
4:13 AM,46.8,45.9,97,30.12,10.0,Calm,Calm,-,N/A,,Clear,0,2013-08-05 08:13:00
4:34 AM,46.8,45.9,97,30.12,10.0,Calm,Calm,-,N/A,,Clear,0,2013-08-05 08:34:00
4:54 AM,46.4,45.5,97,30.12,10.0,Calm,Calm,-,N/A,,Clear,0,2013-08-05 08:54:00
5:13 AM,46.4,45.5,97,30.11,10.0,Calm,Calm,-,N/A,,Clear,0,2013-08-05 09:13:00
5:34 AM,47.3,46.4,97,30.11,10.0,Calm,Calm,-,N/A,,Clear,0,2013-08-05 09:34:00
5:54 AM,47.8,46.9,97,30.12,10.0,Calm,Calm,-,N/A,,Clear,0,2013-08-05 09:54:00
6:14 AM,46.9,46.0,97,30.12,10.0,Calm,Calm,-,N/A,,Clear,0,2013-08-05 10:14:00
6:34 AM,46.6,45.7,97,30.12,10.0,Calm,Calm,-,N/A,,Clear,0,2013-08-05 10:34:00
6:54 AM,47.1,46.0,96,30.12,10.0,Calm,Calm,-,N/A,,Clear,0,2013-08-05 10:54:00
7:14 AM,48.2,47.3,97,30.12,10.0,Calm,Calm,-,N/A,,Clear,0,2013-08-05 11:14:00
7:34 AM,51.6,50.7,97,30.13,10.0,Calm,Calm,-,N/A,,Clear,0,2013-08-05 11:34:00
7:54 AM,54.9,53.4,95,30.13,10.0,Calm,Calm,-,N/A,,Clear,0,2013-08-05 11:54:00
8:14 AM,57.0,54.7,92,30.13,10.0,Calm,Calm,-,N/A,,Clear,0,2013-08-05 12:14:00
8:34 AM,59.2,54.5,84,30.13,10.0,South,3.5,-,N/A,,Scattered Clouds,180,2013-08-05 12:34:00
8:54 AM,60.1,55.0,83,30.12,10.0,Calm,Calm,-,N/A,,Scattered Clouds,0,2013-08-05 12:54:00
9:14 AM,61.5,54.7,78,30.12,10.0,South,3.5,-,N/A,,Scattered Clouds,170,2013-08-05 13:14:00
9:34 AM,62.8,54.0,73,30.12,10.0,SSW,4.6,-,N/A,,Mostly Cloudy,200,2013-08-05 13:34:00
9:54 AM,63.0,54.5,74,30.12,10.0,SSW,4.6,-,N/A,,Overcast,210,2013-08-05 13:54:00
10:14 AM,62.2,53.4,73,30.12,10.0,South,5.8,-,N/A,,Overcast,180,2013-08-05 14:14:00
10:34 AM,62.4,54.1,74,30.12,10.0,South,8.1,-,N/A,,Overcast,170,2013-08-05 14:34:00
10:54 AM,63.5,55.0,74,30.11,10.0,SSE,8.1,-,N/A,,Overcast,160,2013-08-05 14:54:00
11:14 AM,64.9,54.9,70,30.11,10.0,South,6.9,-,N/A,,Overcast,180,2013-08-05 15:14:00
11:34 AM,65.7,55.0,69,30.10,10.0,SSE,11.5,-,N/A,,Overcast,160,2013-08-05 15:34:00
11:54 AM,66.6,55.0,66,30.10,10.0,South,10.4,-,N/A,,Mostly Cloudy,190,2013-08-05 15:54:00
12:14 PM,66.6,54.9,66,30.10,10.0,SSE,10.4,-,N/A,,Overcast,160,2013-08-05 16:14:00
12:34 PM,67.5,54.1,62,30.09,10.0,South,12.7,-,N/A,,Mostly Cloudy,170,2013-08-05 16:34:00
12:54 PM,67.5,52.2,58,30.08,10.0,South,12.7,16.1,N/A,,Mostly Cloudy,190,2013-08-05 16:54:00
1:14 PM,67.3,52.7,59,30.07,10.0,South,10.4,-,N/A,,Overcast,170,2013-08-05 17:14:00
1:34 PM,67.8,51.4,56,30.06,10.0,South,11.5,16.1,N/A,,Mostly Cloudy,180,2013-08-05 17:34:00
1:54 PM,68.4,53.2,58,30.06,10.0,SSE,11.5,-,N/A,,Mostly Cloudy,160,2013-08-05 17:54:00
2:14 PM,69.4,53.6,57,30.06,10.0,South,11.5,-,N/A,,Scattered Clouds,180,2013-08-05 18:14:00
2:34 PM,68.9,53.4,58,30.05,10.0,SSE,9.2,-,N/A,,Mostly Cloudy,160,2013-08-05 18:34:00
2:54 PM,69.1,53.8,58,30.05,10.0,South,9.2,17.3,N/A,,Scattered Clouds,180,2013-08-05 18:54:00
3:14 PM,69.8,54.1,57,30.04,10.0,SSE,12.7,16.1,N/A,,Scattered Clouds,160,2013-08-05 19:14:00
3:34 PM,69.8,54.1,57,30.03,10.0,South,11.5,-,N/A,,Scattered Clouds,180,2013-08-05 19:34:00
3:54 PM,69.8,53.8,57,30.03,10.0,South,10.4,-,N/A,,Mostly Cloudy,190,2013-08-05 19:54:00
4:14 PM,70.2,55.0,59,30.03,10.0,South,8.1,-,N/A,,Scattered Clouds,180,2013-08-05 20:14:00
4:34 PM,69.3,54.1,59,30.03,10.0,South,9.2,-,N/A,,Scattered Clouds,190,2013-08-05 20:34:00
4:54 PM,69.4,55.0,60,30.03,10.0,South,9.2,-,N/A,,Scattered Clouds,190,2013-08-05 20:54:00
5:14 PM,69.8,55.4,60,30.02,10.0,South,9.2,-,N/A,,Scattered Clouds,190,2013-08-05 21:14:00
5:34 PM,70.0,55.2,59,30.02,10.0,SSW,8.1,-,N/A,,Mostly Cloudy,200,2013-08-05 21:34:00
5:54 PM,71.1,56.1,59,30.01,10.0,South,6.9,-,N/A,,Mostly Cloudy,190,2013-08-05 21:54:00
6:14 PM,68.9,55.8,63,30.01,10.0,SSW,5.8,-,N/A,,Mostly Cloudy,200,2013-08-05 22:14:00
6:34 PM,70.2,50.5,50,30.01,10.0,West,8.1,-,N/A,,Mostly Cloudy,270,2013-08-05 22:34:00
6:54 PM,67.6,53.1,59,30.01,10.0,WSW,6.9,-,N/A,,Scattered Clouds,240,2013-08-05 22:54:00
7:14 PM,66.6,55.4,67,30.01,10.0,SW,5.8,-,N/A,,Mostly Cloudy,220,2013-08-05 23:14:00
7:34 PM,65.8,55.6,69,30.01,10.0,WSW,6.9,-,N/A,,Overcast,250,2013-08-05 23:34:00
7:54 PM,65.5,54.0,66,30.00,10.0,WSW,4.6,-,N/A,,Mostly Cloudy,240,2013-08-05 23:54:00
8:15 PM,64.9,53.8,67,30.00,10.0,SW,6.9,-,N/A,,Mostly Cloudy,230,2013-08-06 00:15:00
8:34 PM,64.4,53.6,68,30.00,10.0,SW,5.8,-,N/A,,Overcast,230,2013-08-06 00:34:00
8:54 PM,63.5,54.0,71,30.00,10.0,Calm,Calm,-,N/A,,Overcast,0,2013-08-06 00:54:00
9:15 PM,62.2,55.4,78,30.00,10.0,South,3.5,-,N/A,,Overcast,180,2013-08-06 01:15:00
9:34 PM,61.7,55.9,81,29.99,10.0,Calm,Calm,-,N/A,,Overcast,0,2013-08-06 01:34:00
9:54 PM,61.2,55.8,82,29.99,10.0,Calm,Calm,-,N/A,,Overcast,0,2013-08-06 01:54:00
10:15 PM,61.3,55.4,81,29.99,10.0,Calm,Calm,-,N/A,,Mostly Cloudy,0,2013-08-06 02:15:00
10:34 PM,61.0,55.4,82,29.99,10.0,Calm,Calm,-,N/A,,Overcast,0,2013-08-06 02:34:00
10:54 PM,61.2,56.1,83,29.98,10.0,SSE,3.5,-,N/A,,Overcast,150,2013-08-06 02:54:00
11:15 PM,61.2,56.7,85,29.99,10.0,Calm,Calm,-,N/A,,Overcast,0,2013-08-06 03:15:00
11:34 PM,60.8,56.7,86,29.99,10.0,Calm,Calm,-,N/A,,Overcast,0,2013-08-06 03:34:00
11:54 PM,61.0,56.3,85,29.98,10.0,Calm,Calm,-,N/A,,Overcast,0,2013-08-06 03:54:00